createdAt,value
2022-12-17T00:02:45.589Z,-3.5
2022-12-17T00:08:13.013Z,-3.5
2022-12-17T00:13:31.814Z,-3.5
2022-12-17T00:19:20.703Z,-3.7
2022-12-17T00:24:35.109Z,-3.6
2022-12-17T00:30:28.642Z,-3.5
2022-12-17T00:35:38.015Z,-3.8
2022-12-17T00:41:09.252Z,-3.7
2022-12-17T00:47:05.365Z,-3.7
2022-12-17T00:52:16.718Z,-3.8
2022-12-17T00:57:57.092Z,-3.7
2022-12-17T01:03:29.040Z,-3.8
2022-12-17T01:08:54.808Z,-3.6
2022-12-17T01:14:25.998Z,-3.5
2022-12-17T01:20:15.346Z,-3.7
2022-12-17T01:25:32.316Z,-3.9
2022-12-17T01:31:06.733Z,-3.9
2022-12-17T01:36:41.103Z,-4
2022-12-17T01:42:19.141Z,-3.8
2022-12-17T01:47:33.277Z,-4
2022-12-17T01:53:15.634Z,-4.2
2022-12-17T01:58:37.065Z,-4.1
2022-12-17T02:04:18.152Z,-4.1
2022-12-17T02:09:59.309Z,-4.1
2022-12-17T02:15:14.791Z,-4.1
2022-12-17T02:20:46.730Z,-4.1
2022-12-17T02:26:09.144Z,-4
2022-12-17T02:31:44.612Z,-4.1
2022-12-17T02:37:24.300Z,-4.1
2022-12-17T02:42:45.925Z,-4.1
2022-12-17T02:48:26.254Z,-4.2
2022-12-17T02:53:55.079Z,-4.4
2022-12-17T02:59:27.581Z,-4.2
2022-12-17T03:05:06.549Z,-4.2
2022-12-17T03:10:32.153Z,-4.2
2022-12-17T03:16:14.974Z,-4.2
2022-12-17T03:21:29.974Z,-4.1
2022-12-17T03:27:11.133Z,-4.2
2022-12-17T03:32:46.895Z,-4.1
2022-12-17T03:38:24.254Z,-4.1
2022-12-17T03:43:37.611Z,-4
2022-12-17T03:49:21.829Z,-4.1
2022-12-17T03:54:51.964Z,-4
2022-12-17T04:00:32.459Z,-3.9
2022-12-17T04:05:47.808Z,-3.9
2022-12-17T04:11:27.588Z,-3.9
2022-12-17T04:16:50.845Z,-3.9
2022-12-17T04:22:14.698Z,-3.8
2022-12-17T04:27:53.101Z,-3.8
2022-12-17T04:33:32.501Z,-3.9
2022-12-17T04:38:53.896Z,-3.7
2022-12-17T04:44:38.176Z,-3.7
2022-12-17T04:50:05.087Z,-3.7
2022-12-17T04:55:37.604Z,-3.6
2022-12-17T05:01:15.541Z,-3.5
2022-12-17T05:06:33.869Z,-3.4
2022-12-17T05:12:16.150Z,-3.4
2022-12-17T05:17:43.619Z,-3.5
2022-12-17T05:23:09.443Z,-3.4
2022-12-17T05:28:46.932Z,-3.5
2022-12-17T05:34:28.610Z,-3.5
2022-12-17T05:40:01.027Z,-3.4
2022-12-17T05:45:20.273Z,-3.3
2022-12-17T05:51:12.338Z,-3.4
2022-12-17T05:56:33.131Z,-3.3
2022-12-17T06:02:02.282Z,-3.3
2022-12-17T06:07:29.754Z,-3.3
2022-12-17T06:13:11.225Z,-3.2
2022-12-17T06:18:31.523Z,-3.3
2022-12-17T06:24:04.875Z,-3.2
2022-12-17T06:29:36.011Z,-3.1
2022-12-17T06:34:59.686Z,-3.1
2022-12-17T06:40:59.112Z,-3.1
2022-12-17T06:46:07.414Z,-3.1
2022-12-17T06:51:45.377Z,-3
2022-12-17T06:57:34.347Z,-2.9
2022-12-17T07:03:06.205Z,-2.8
2022-12-17T07:08:08.816Z,-2.8
2022-12-17T07:13:59.320Z,-2.7
2022-12-17T07:19:25.443Z,-2.8
2022-12-17T07:24:46.234Z,-2.6
2022-12-17T07:30:38.646Z,-2.6
2022-12-17T07:36:12.998Z,-2.6
2022-12-17T07:41:35.656Z,-2.5
2022-12-17T07:47:08.920Z,-2.5
2022-12-17T07:52:42.606Z,-2.4
2022-12-17T07:58:11.868Z,-2.4
2022-12-17T08:03:24.973Z,-2.4
2022-12-17T08:09:02.620Z,-2.3
2022-12-17T08:14:28.529Z,-2.2
2022-12-17T08:20:11.365Z,-2.2
2022-12-17T08:25:48.978Z,-2.1
2022-12-17T08:31:04.885Z,-2.1
2022-12-17T08:36:39.027Z,-2
2022-12-17T08:42:21.892Z,-1.9
2022-12-17T08:47:49.665Z,-1.9
2022-12-17T08:53:30.669Z,-1.8
2022-12-17T08:58:41.858Z,-1.8
2022-12-17T09:04:24.666Z,-1.8
2022-12-17T09:10:01.788Z,-1.7
2022-12-17T09:15:19.294Z,-1.7
2022-12-17T09:20:47.332Z,-1.7
2022-12-17T09:26:33.232Z,-1.7
2022-12-17T09:32:06.812Z,-1.5
2022-12-17T09:37:42.263Z,-1.7
2022-12-17T09:42:55.678Z,-1.7
2022-12-17T09:48:38.361Z,-1.6
2022-12-17T09:54:18.466Z,-1.6
2022-12-17T09:59:38.796Z,-1.5
2022-12-17T10:05:20.265Z,-1.6
2022-12-17T10:10:32.315Z,-1.5
2022-12-17T10:16:11.632Z,-1.5
2022-12-17T10:21:59.958Z,-1.5
2022-12-17T10:27:07.773Z,-1.4
2022-12-17T10:32:59.146Z,-1.6
2022-12-17T10:38:27.258Z,-1.4
2022-12-17T10:43:58.205Z,-1.4
2022-12-17T10:49:14.077Z,-1.4
2022-12-17T10:55:01.034Z,-1.3
2022-12-17T11:00:28.759Z,-1.2
2022-12-17T11:05:56.280Z,-1.3
2022-12-17T11:11:31.020Z,-1.2
2022-12-17T11:16:55.880Z,-1.2
2022-12-17T11:22:41.484Z,-1.1
2022-12-17T11:28:14.778Z,-1.2
2022-12-17T11:33:49.528Z,-1.1
2022-12-17T11:39:02.042Z,-1.1
2022-12-17T11:44:34.756Z,-1.1
2022-12-17T11:50:33.814Z,-1.1
2022-12-17T11:56:00.467Z,-1
2022-12-17T12:01:34.791Z,-0.9
2022-12-17T12:06:49.026Z,-0.9
2022-12-17T12:12:22.745Z,-1
2022-12-17T12:18:02.399Z,-0.8
2022-12-17T12:23:20.200Z,-0.9
2022-12-17T12:28:53.823Z,-1
2022-12-17T12:34:45.503Z,-0.7
2022-12-17T12:40:16.051Z,-0.8
2022-12-17T12:45:52.444Z,-0.8
2022-12-17T12:51:00.759Z,-0.7
2022-12-17T12:56:52.452Z,-0.7
2022-12-17T13:02:21.644Z,-0.6
2022-12-17T13:07:59.179Z,-0.6
2022-12-17T13:13:09.442Z,-0.7
2022-12-17T13:18:37.166Z,-0.7
2022-12-17T13:24:27.904Z,-0.8
2022-12-17T13:30:05.632Z,-0.9
2022-12-17T13:35:27.230Z,-0.9
2022-12-17T13:40:53.723Z,-0.8
2022-12-17T13:46:33.395Z,-0.8
2022-12-17T13:51:54.688Z,-0.8
2022-12-17T13:57:24.772Z,-0.7
2022-12-17T14:03:17.857Z,-0.7
2022-12-17T14:08:32.331Z,-0.8
2022-12-17T14:14:17.148Z,-0.8
2022-12-17T14:19:25.691Z,-0.7
2022-12-17T14:25:16.286Z,-0.7
2022-12-17T14:31:17.629Z,-0.7
2022-12-17T14:36:10.586Z,-0.7
2022-12-17T14:41:37.906Z,-0.7
2022-12-17T14:47:22.881Z,-0.7
2022-12-17T14:52:53.666Z,-0.7
2022-12-17T14:58:26.161Z,-0.7
2022-12-17T15:04:03.207Z,-0.8
2022-12-17T15:09:16.937Z,-0.8
2022-12-17T15:14:44.272Z,-0.8
2022-12-17T15:20:23.385Z,-0.8
2022-12-17T15:25:59.840Z,-0.9
2022-12-17T15:31:43.185Z,-1
2022-12-17T15:37:14.201Z,-1
2022-12-17T15:42:27.861Z,-1
2022-12-17T15:48:05.349Z,-0.9
2022-12-17T15:53:36.701Z,-0.9
2022-12-17T15:59:19.078Z,-0.9
2022-12-17T16:04:53.603Z,-0.9
2022-12-17T16:10:12.430Z,-0.9
2022-12-17T16:15:49.802Z,-0.9
2022-12-17T16:21:16.852Z,-0.9
2022-12-17T16:26:36.429Z,-1
2022-12-17T16:32:24.874Z,-1
2022-12-17T16:37:46.025Z,-1
2022-12-17T16:43:18.918Z,-1
2022-12-17T16:49:03.551Z,-1.1
2022-12-17T16:54:24.143Z,-1.1
2022-12-17T17:00:03.658Z,-1.1
2022-12-17T17:05:22.763Z,-1.1
2022-12-17T17:11:09.911Z,-1.1
2022-12-17T17:16:25.442Z,-1.2
2022-12-17T17:22:20.879Z,-1.2
2022-12-17T17:27:30.686Z,-1.2
2022-12-17T17:33:17.940Z,-1.1
2022-12-17T17:38:30.413Z,-1.1
2022-12-17T17:44:06.282Z,-1.2
2022-12-17T17:50:01.284Z,-1.2
2022-12-17T17:55:17.375Z,-1.2
2022-12-17T18:00:39.398Z,-1.2
2022-12-17T18:06:15.004Z,-1.2
2022-12-17T18:11:40.987Z,-1.2
2022-12-17T18:17:26.972Z,-1.2
2022-12-17T18:23:04.685Z,-1.2
2022-12-17T18:28:42.974Z,-1.2
2022-12-17T18:34:04.535Z,-1.2
2022-12-17T18:39:33.291Z,-1.2
2022-12-17T18:45:14.520Z,-1.2
2022-12-17T18:50:42.865Z,-1.2
2022-12-17T18:55:54.920Z,-1.2
2022-12-17T19:01:52.131Z,-1.3
2022-12-17T19:07:12.253Z,-1.1
2022-12-17T19:12:49.583Z,-1.2
2022-12-17T19:18:14.618Z,-1.3
2022-12-17T19:23:49.190Z,-1.2
2022-12-17T19:29:01.314Z,-1.2
2022-12-17T19:34:50.515Z,-1.1
2022-12-17T19:40:23.453Z,-1.2
2022-12-17T19:45:48.202Z,-1.3
2022-12-17T19:51:34.330Z,-1.2
2022-12-17T19:56:48.926Z,-1.1
2022-12-17T20:02:21.573Z,-1.2
2022-12-17T20:07:57.995Z,-1.1
2022-12-17T20:13:30.108Z,-1.1
2022-12-17T20:18:46.035Z,-1.1
2022-12-17T20:24:39.377Z,-1.1
2022-12-17T20:29:46.868Z,-1.2
2022-12-17T20:35:33.359Z,-1.2
2022-12-17T20:40:53.438Z,-1.2
2022-12-17T20:46:22.637Z,-1.3
2022-12-17T20:52:10.217Z,-1.2
2022-12-17T20:57:31.386Z,-1.2
2022-12-17T21:02:56.754Z,-1.3
2022-12-17T21:08:35.269Z,-1.3
2022-12-17T21:14:10.882Z,-1.3
2022-12-17T21:19:34.000Z,-1.2
2022-12-17T21:25:08.585Z,-1.2
2022-12-17T21:30:51.499Z,-1.3
2022-12-17T21:36:05.938Z,-1.3
2022-12-17T21:41:38.311Z,-1.4
2022-12-17T21:47:11.366Z,-1.4
2022-12-17T21:52:46.825Z,-1.3
2022-12-17T21:58:22.126Z,-1.2
2022-12-17T22:03:55.851Z,-1.2
2022-12-17T22:09:29.570Z,-1.2
2022-12-17T22:15:07.574Z,-1.3
2022-12-17T22:20:14.394Z,-1.4
2022-12-17T22:25:43.101Z,-1.3
2022-12-17T22:37:56.921Z,-1.3
2022-12-17T22:44:39.528Z,-1.3
2022-12-17T22:48:11.540Z,-1.3
2022-12-17T22:53:37.016Z,-1.2
2022-12-17T22:58:56.463Z,-1.3
2022-12-17T23:04:36.802Z,-1.4
2022-12-17T23:09:55.155Z,-1.4
2022-12-17T23:15:32.377Z,-1.4
2022-12-17T23:21:09.200Z,-1.5
2022-12-17T23:26:31.445Z,-1.4
2022-12-17T23:31:58.244Z,-1.4
2022-12-17T23:37:40.100Z,-1.4
2022-12-17T23:43:21.018Z,-1.5
2022-12-17T23:48:32.183Z,-1.5
2022-12-17T23:54:02.256Z,-1.5
2022-12-17T23:59:43.346Z,-1.5
